createdAt,value
2023-02-02T00:00:45.420Z,101563.31
2023-02-02T00:02:46.911Z,101562.44
2023-02-02T00:04:48.412Z,101561.56
2023-02-02T00:06:50.266Z,101576.44
2023-02-02T00:08:52.254Z,101580.81
2023-02-02T00:10:53.704Z,101577.31
2023-02-02T00:12:57.973Z,101567.69
2023-02-02T00:14:59.550Z,101575.56
2023-02-02T00:17:01.040Z,101573.81
2023-02-02T00:19:10.337Z,101565.94
2023-02-02T00:21:11.792Z,101575.56
2023-02-02T00:23:13.227Z,101574.69
2023-02-02T00:25:14.691Z,101582.53
2023-02-02T00:27:16.153Z,101575.53
2023-02-02T00:29:23.903Z,101565.94
2023-02-02T00:31:25.478Z,101572.06
2023-02-02T00:33:26.967Z,101567.69
2023-02-02T00:35:28.446Z,101565.94
2023-02-02T00:37:29.887Z,101566.81
2023-02-02T00:39:31.365Z,101565.94
2023-02-02T00:41:32.833Z,101577.31
2023-02-02T00:43:34.627Z,101586.91
2023-02-02T00:45:36.781Z,101585.19
2023-02-02T00:47:38.246Z,101584.31
2023-02-02T00:49:39.732Z,101588.66
2023-02-02T00:51:41.207Z,101602.66
2023-02-02T00:53:42.650Z,101610.50
2023-02-02T00:55:44.380Z,101606.13
2023-02-02T00:57:46.239Z,101603.44
2023-02-02T00:59:47.669Z,101601.69
2023-02-02T01:01:49.182Z,101618.25
2023-02-02T01:03:50.799Z,101640.09
2023-02-02T01:05:52.313Z,101635.69
2023-02-02T01:07:53.790Z,101621.66
2023-02-02T01:09:55.244Z,101612.91
2023-02-02T01:11:57.254Z,101625.09
2023-02-02T01:13:58.719Z,101621.56
2023-02-02T01:16:02.037Z,101625.91
2023-02-02T01:18:03.625Z,101624.13
2023-02-02T01:20:07.006Z,101630.19
2023-02-02T01:22:09.261Z,101624.91
2023-02-02T01:24:10.683Z,101626.63
2023-02-02T01:26:13.552Z,101624.84
2023-02-02T01:28:15.010Z,101634.44
2023-02-02T01:30:16.550Z,101630.06
2023-02-02T01:32:18.078Z,101636.19
2023-02-02T01:34:19.640Z,101638.81
2023-02-02T01:36:23.214Z,101637.94
2023-02-02T01:38:25.129Z,101635.31
2023-02-02T01:40:26.672Z,101627.47
2023-02-02T01:42:28.223Z,101637.06
2023-02-02T01:44:53.211Z,101629.25
2023-02-02T01:46:54.663Z,101633.59
2023-02-02T01:49:11.110Z,101626.66
2023-02-02T01:51:17.319Z,101636.28
2023-02-02T01:53:19.966Z,101639.78
2023-02-02T01:55:25.151Z,101647.66
2023-02-02T01:57:42.271Z,101647.66
2023-02-02T01:59:46.467Z,101647.66
2023-02-02T02:01:49.216Z,101648.53
2023-02-02T02:03:50.717Z,101644.16
2023-02-02T02:06:00.489Z,101655.50
2023-02-02T02:08:13.646Z,101653.75
2023-02-02T02:10:17.638Z,101645.84
2023-02-02T02:12:19.070Z,101658.94
2023-02-02T02:14:40.284Z,101658.91
2023-02-02T02:16:47.270Z,101654.56
2023-02-02T02:18:57.107Z,101665.00
2023-02-02T02:21:35.383Z,101662.38
2023-02-02T02:24:31.733Z,101672.84
2023-02-02T02:26:35.985Z,101677.19
2023-02-02T02:29:04.980Z,101676.31
2023-02-02T02:31:44.103Z,101680.63
2023-02-02T02:34:09.662Z,101670.16
2023-02-02T02:36:20.791Z,101676.28
2023-02-02T02:38:47.775Z,101691.13
2023-02-02T02:40:58.107Z,101685.00
2023-02-02T02:43:05.281Z,101697.22
2023-02-02T02:45:08.381Z,101697.19
2023-02-02T02:47:10.613Z,101712.00
2023-02-02T02:49:13.719Z,101697.19
2023-02-02T02:51:40.033Z,101705.91
2023-02-02T02:53:41.572Z,101705.00
2023-02-02T02:55:53.423Z,101706.75
2023-02-02T02:58:16.371Z,101705.88
2023-02-02T03:00:32.419Z,101714.59
2023-02-02T03:02:45.668Z,101716.31
2023-02-02T03:05:02.875Z,101715.44
2023-02-02T03:07:10.398Z,101719.78
2023-02-02T03:09:18.136Z,101721.53
2023-02-02T03:11:20.663Z,101729.34
2023-02-02T03:13:22.510Z,101725.88
2023-02-02T03:15:24.709Z,101718.03
2023-02-02T03:17:28.072Z,101721.50
2023-02-02T03:19:29.555Z,101724.97
2023-02-02T03:21:32.232Z,101725.81
2023-02-02T03:23:34.406Z,101729.28
2023-02-02T03:25:35.987Z,101735.38
2023-02-02T03:27:38.950Z,101733.56
2023-02-02T03:29:40.405Z,101730.06
2023-02-02T03:31:42.009Z,101726.53
2023-02-02T03:33:43.744Z,101734.38
2023-02-02T03:35:45.294Z,101735.22
2023-02-02T03:37:47.511Z,101737.81
2023-02-02T03:39:49.016Z,101729.91
2023-02-02T03:41:50.462Z,101736.84
2023-02-02T03:43:51.895Z,101741.16
2023-02-02T03:46:01.765Z,101743.75
2023-02-02T03:48:05.475Z,101741.97
2023-02-02T03:50:09.832Z,101745.41
2023-02-02T03:52:11.440Z,101748.84
2023-02-02T03:54:13.862Z,101741.88
2023-02-02T03:56:16.121Z,101753.13
2023-02-02T03:58:17.680Z,101754.03
2023-02-02T04:00:19.512Z,101755.81
2023-02-02T04:02:21.007Z,101762.81
2023-02-02T04:04:22.519Z,101758.44
2023-02-02T04:06:24.733Z,101757.56
2023-02-02T04:08:26.311Z,101763.66
2023-02-02T04:10:27.826Z,101767.13
2023-02-02T04:12:29.274Z,101770.53
2023-02-02T04:14:30.752Z,101764.44
2023-02-02T04:16:34.891Z,101772.25
2023-02-02T04:18:39.241Z,101770.47
2023-02-02T04:20:40.707Z,101777.44
2023-02-02T04:22:42.168Z,101773.91
2023-02-02T04:24:43.642Z,101776.53
2023-02-02T04:26:45.522Z,101778.28
2023-02-02T04:28:47.003Z,101778.28
2023-02-02T04:30:48.445Z,101785.25
2023-02-02T04:32:51.390Z,101786.09
2023-02-02T04:34:52.872Z,101786.97
2023-02-02T04:36:54.321Z,101786.91
2023-02-02T04:38:55.929Z,101783.41
2023-02-02T04:40:57.395Z,101798.19
2023-02-02T04:42:58.883Z,101791.22
2023-02-02T04:45:00.318Z,101791.19
2023-02-02T04:47:01.790Z,101781.59
2023-02-02T04:49:03.267Z,101778.09
2023-02-02T04:51:07.204Z,101776.38
2023-02-02T04:53:08.652Z,101775.50
2023-02-02T04:55:10.115Z,101778.13
2023-02-02T04:57:11.579Z,101781.59
2023-02-02T04:59:13.058Z,101781.59
2023-02-02T05:01:20.792Z,101779.88
2023-02-02T05:03:22.292Z,101782.47
2023-02-02T05:05:24.031Z,101784.25
2023-02-02T05:07:25.663Z,101778.16
2023-02-02T05:09:27.243Z,101783.38
2023-02-02T05:11:28.733Z,101788.63
2023-02-02T05:13:30.189Z,101784.28
2023-02-02T05:15:31.641Z,101787.78
2023-02-02T05:17:33.374Z,101787.75
2023-02-02T05:19:34.884Z,101795.63
2023-02-02T05:21:36.331Z,101799.09
2023-02-02T05:23:37.797Z,101800.78
2023-02-02T05:25:39.242Z,101805.16
2023-02-02T05:27:44.111Z,101803.44
2023-02-02T05:29:47.321Z,101807.81
2023-02-02T05:31:48.810Z,101809.53
2023-02-02T05:33:50.302Z,101808.69
2023-02-02T05:35:52.793Z,101809.53
2023-02-02T05:37:54.249Z,101812.16
2023-02-02T05:39:55.747Z,101805.16
2023-02-02T05:41:57.175Z,101814.78
2023-02-02T05:44:02.168Z,101821.78
2023-02-02T05:46:03.778Z,101813.97
2023-02-02T05:48:05.432Z,101816.56
2023-02-02T05:50:07.237Z,101817.44
2023-02-02T05:52:16.091Z,101824.41
2023-02-02T05:54:20.451Z,101820.91
2023-02-02T05:56:21.974Z,101825.22
2023-02-02T05:58:23.737Z,101829.63
2023-02-02T06:00:25.193Z,101830.53
2023-02-02T06:02:26.756Z,101832.25
2023-02-02T06:04:28.317Z,101836.59
2023-02-02T06:06:29.752Z,101839.25
2023-02-02T06:08:31.222Z,101840.13
2023-02-02T06:10:32.700Z,101839.25
2023-02-02T06:12:34.219Z,101839.25
2023-02-02T06:14:35.876Z,101844.53
2023-02-02T06:16:37.507Z,101843.69
2023-02-02T06:18:39.105Z,101844.53
2023-02-02T06:20:40.611Z,101847.16
2023-02-02T06:22:43.832Z,101849.78
2023-02-02T06:24:45.387Z,101853.28
2023-02-02T06:26:46.895Z,101857.66
2023-02-02T06:28:52.704Z,101855.03
2023-02-02T06:30:54.278Z,101855.94
2023-02-02T06:32:55.860Z,101863.84
2023-02-02T06:34:57.323Z,101866.53
2023-02-02T06:36:58.772Z,101869.19
2023-02-02T06:39:00.325Z,101877.94
2023-02-02T06:41:02.625Z,101879.66
2023-02-02T06:43:04.302Z,101880.50
2023-02-02T06:45:06.133Z,101882.25
2023-02-02T06:47:07.648Z,101884.91
2023-02-02T06:49:09.172Z,101888.41
2023-02-02T06:51:10.649Z,101891.03
2023-02-02T06:53:12.101Z,101892.78
2023-02-02T06:55:13.674Z,101897.13
2023-02-02T06:57:15.116Z,101898.84
2023-02-02T06:59:16.615Z,101897.94
2023-02-02T07:01:18.204Z,101897.94
2023-02-02T07:03:21.444Z,101894.47
2023-02-02T07:05:24.350Z,101900.56
2023-02-02T07:07:26.114Z,101896.19
2023-02-02T07:09:27.607Z,101893.59
2023-02-02T07:11:29.609Z,101896.19
2023-02-02T07:13:31.755Z,101906.69
2023-02-02T07:15:34.336Z,101896.22
2023-02-02T07:17:35.842Z,101897.94
2023-02-02T07:19:37.354Z,101907.50
2023-02-02T07:21:38.857Z,101907.50
2023-02-02T07:23:40.341Z,101914.50
2023-02-02T07:25:43.837Z,101915.34
2023-02-02T07:27:47.808Z,101908.38
2023-02-02T07:29:49.311Z,101921.50
2023-02-02T07:31:51.291Z,101925.03
2023-02-02T07:33:53.844Z,101926.78
2023-02-02T07:35:55.370Z,101927.69
2023-02-02T07:37:57.378Z,101929.44
2023-02-02T07:39:58.888Z,101935.53
2023-02-02T07:42:00.379Z,101932.09
2023-02-02T07:44:01.965Z,101943.44
2023-02-02T07:46:06.576Z,101941.72
2023-02-02T07:48:08.113Z,101939.13
2023-02-02T07:50:10.148Z,101951.34
2023-02-02T07:52:11.659Z,101955.72
2023-02-02T07:54:13.302Z,101958.34
2023-02-02T07:56:17.243Z,101961.88
2023-02-02T07:58:18.760Z,101967.97
2023-02-02T08:00:20.779Z,101964.53
2023-02-02T08:02:22.230Z,101973.25
2023-02-02T08:04:23.695Z,101972.41
2023-02-02T08:06:34.105Z,101968.91
2023-02-02T08:08:35.591Z,101969.78
2023-02-02T08:10:37.097Z,101975.88
2023-02-02T08:12:38.579Z,101977.66
2023-02-02T08:14:40.068Z,101978.56
2023-02-02T08:16:41.580Z,101977.69
2023-02-02T08:18:43.951Z,101983.84
2023-02-02T08:20:45.487Z,101992.63
2023-02-02T08:22:46.950Z,101992.66
2023-02-02T08:24:48.490Z,101999.66
2023-02-02T08:26:50.087Z,101998.81
2023-02-02T08:29:03.969Z,102006.69
2023-02-02T08:31:11.563Z,102013.72
2023-02-02T08:33:13.549Z,102020.72
2023-02-02T08:35:15.050Z,102017.25
2023-02-02T08:37:16.515Z,102017.28
2023-02-02T08:39:17.982Z,102025.13
2023-02-02T08:41:22.683Z,102026.00
2023-02-02T08:43:24.236Z,102033.88
2023-02-02T08:46:03.874Z,102035.66
2023-02-02T08:47:49.253Z,102038.31
2023-02-02T08:49:55.341Z,102040.94
2023-02-02T08:51:56.837Z,102051.44
2023-02-02T08:53:58.339Z,102043.63
2023-02-02T08:56:06.646Z,102056.75
2023-02-02T08:58:08.171Z,102058.53
2023-02-02T09:00:11.700Z,102062.94
2023-02-02T09:02:13.878Z,102060.38
2023-02-02T09:04:18.441Z,102066.50
2023-02-02T09:06:21.211Z,102060.41
2023-02-02T09:08:22.689Z,102064.81
2023-02-02T09:10:24.179Z,102062.25
2023-02-02T09:12:25.757Z,102069.28
2023-02-02T09:14:27.400Z,102064.06
2023-02-02T09:16:30.063Z,102071.09
2023-02-02T09:18:31.693Z,102073.72
2023-02-02T09:20:33.360Z,102076.38
2023-02-02T09:22:34.991Z,102082.50
2023-02-02T09:24:36.543Z,102086.88
2023-02-02T09:26:40.558Z,102085.16
2023-02-02T09:28:45.196Z,102082.56
2023-02-02T09:30:46.676Z,102093.03
2023-02-02T09:32:51.279Z,102090.47
2023-02-02T09:34:52.765Z,102100.97
2023-02-02T09:36:54.364Z,102101.03
2023-02-02T09:38:55.933Z,102093.16
2023-02-02T09:40:57.401Z,102105.44
2023-02-02T09:43:18.030Z,102102.03
2023-02-02T09:45:36.314Z,102101.16
2023-02-02T09:48:20.203Z,102109.06
2023-02-02T09:50:40.881Z,102103.84
2023-02-02T09:53:08.027Z,102110.00
2023-02-02T09:55:25.278Z,102112.63
2023-02-02T09:57:36.701Z,102119.66
2023-02-02T09:59:41.567Z,102124.91
2023-02-02T10:01:45.144Z,102123.19
2023-02-02T10:04:15.624Z,102131.09
2023-02-02T10:06:35.724Z,102132.94
2023-02-02T10:08:44.263Z,102137.38
2023-02-02T10:10:47.119Z,102143.50
2023-02-02T10:12:59.884Z,102131.28
2023-02-02T10:15:17.840Z,102133.13
2023-02-02T10:17:52.984Z,102140.13
2023-02-02T10:20:01.119Z,102136.63
2023-02-02T10:22:06.477Z,102145.41
2023-02-02T10:24:17.782Z,102151.53
2023-02-02T10:26:23.527Z,102155.13
2023-02-02T10:28:33.882Z,102151.66
2023-02-02T10:30:59.202Z,102155.19
2023-02-02T10:33:06.930Z,102149.09
2023-02-02T10:35:37.151Z,102144.72
2023-02-02T10:38:07.436Z,102144.78
2023-02-02T10:40:41.586Z,102156.22
2023-02-02T10:43:20.191Z,102165.13
2023-02-02T10:45:22.222Z,102166.97
2023-02-02T10:47:27.964Z,102172.25
2023-02-02T10:49:40.082Z,102170.47
2023-02-02T10:51:50.324Z,102177.44
2023-02-02T10:53:57.513Z,102182.66
2023-02-02T10:56:06.935Z,102181.75
2023-02-02T10:58:11.219Z,102180.00
2023-02-02T11:00:39.092Z,102180.88
2023-02-02T11:02:40.626Z,102181.72
2023-02-02T11:05:00.565Z,102184.34
2023-02-02T11:07:02.098Z,102187.00
2023-02-02T11:09:04.988Z,102185.28
2023-02-02T11:11:27.799Z,102181.81
2023-02-02T11:13:37.102Z,102190.56
2023-02-02T11:15:38.614Z,102187.97
2023-02-02T11:17:40.196Z,102190.59
2023-02-02T11:19:41.673Z,102191.47
2023-02-02T11:21:47.626Z,102199.38
2023-02-02T11:24:19.364Z,102192.41
2023-02-02T11:26:22.932Z,102199.50
2023-02-02T11:28:30.229Z,102200.50
2023-02-02T11:30:35.827Z,102201.50
2023-02-02T11:32:38.043Z,102196.38
2023-02-02T11:34:39.535Z,102193.03
2023-02-02T11:36:41.058Z,102193.97
2023-02-02T11:38:42.525Z,102200.09
2023-02-02T11:40:46.242Z,102206.22
2023-02-02T11:42:48.397Z,102196.56
2023-02-02T11:44:55.751Z,102199.19
2023-02-02T11:46:57.505Z,102201.78
2023-02-02T11:49:13.464Z,102201.72
2023-02-02T11:51:23.607Z,102204.31
2023-02-02T11:53:34.019Z,102202.59
2023-02-02T11:55:35.688Z,102208.72
2023-02-02T11:57:37.253Z,102208.69
2023-02-02T11:59:43.769Z,102208.63
2023-02-02T12:01:45.318Z,102205.13
2023-02-02T12:03:48.613Z,102207.81
2023-02-02T12:05:50.316Z,102211.31
2023-02-02T12:07:51.826Z,102218.31
2023-02-02T12:09:57.015Z,102216.59
2023-02-02T12:12:07.516Z,102208.72
2023-02-02T12:14:21.326Z,102213.13
2023-02-02T12:16:37.616Z,102205.25
2023-02-02T12:18:39.142Z,102207.00
2023-02-02T12:21:02.624Z,102213.16
2023-02-02T12:23:12.856Z,102203.53
2023-02-02T12:25:14.278Z,102197.38
2023-02-02T12:27:56.054Z,102197.38
2023-02-02T12:30:08.808Z,102201.78
2023-02-02T12:32:30.027Z,102198.28
2023-02-02T12:35:05.551Z,102197.41
2023-02-02T12:37:27.163Z,102197.44
2023-02-02T12:39:52.705Z,102196.56
2023-02-02T12:42:06.295Z,102190.44
2023-02-02T12:45:04.176Z,102196.63
2023-02-02T12:47:22.646Z,102190.47
2023-02-02T12:49:42.366Z,102201.88
2023-02-02T12:52:19.494Z,102197.56
2023-02-02T12:54:54.534Z,102190.56
2023-02-02T12:57:23.007Z,102192.31
2023-02-02T12:59:57.864Z,102194.00
2023-02-02T13:02:17.808Z,102192.22
2023-02-02T13:04:26.982Z,102191.31
2023-02-02T13:06:46.997Z,102190.44
2023-02-02T13:08:58.671Z,102188.69
2023-02-02T13:11:06.693Z,102185.19
2023-02-02T13:13:16.906Z,102189.59
2023-02-02T13:15:27.322Z,102189.63
2023-02-02T13:17:46.632Z,102188.75
2023-02-02T13:19:54.652Z,102188.75
2023-02-02T13:21:59.420Z,102186.97
2023-02-02T13:24:05.923Z,102187.84
2023-02-02T13:26:15.771Z,102193.13
2023-02-02T13:28:45.176Z,102193.13
2023-02-02T13:30:49.928Z,102196.63
2023-02-02T13:32:53.290Z,102201.88
2023-02-02T13:35:17.844Z,102197.56
2023-02-02T13:37:37.559Z,102193.19
2023-02-02T13:39:45.950Z,102199.34
2023-02-02T13:41:49.771Z,102196.72
2023-02-02T13:44:04.938Z,102195.84
2023-02-02T13:46:24.288Z,102201.13
2023-02-02T13:48:31.513Z,102201.13
2023-02-02T13:50:45.808Z,102209.91
2023-02-02T13:52:54.916Z,102208.16
2023-02-02T13:55:30.108Z,102207.28
2023-02-02T13:57:59.268Z,102209.91
2023-02-02T14:00:12.217Z,102224.81
2023-02-02T14:02:28.442Z,102222.19
2023-02-02T14:04:31.540Z,102229.19
2023-02-02T14:06:56.251Z,102232.69
2023-02-02T14:09:04.626Z,102224.81
2023-02-02T14:11:08.123Z,102223.03
2023-02-02T14:13:32.527Z,102226.53
2023-02-02T14:15:39.400Z,102223.88
2023-02-02T14:17:41.064Z,102219.50
2023-02-02T14:19:56.487Z,102218.63
2023-02-02T14:21:59.261Z,102219.47
2023-02-02T14:24:22.555Z,102211.59
2023-02-02T14:26:40.950Z,102210.66
2023-02-02T14:28:46.163Z,102210.63
2023-02-02T14:31:25.532Z,102212.38
2023-02-02T14:33:38.845Z,102211.47
2023-02-02T14:35:46.087Z,102213.22
2023-02-02T14:37:52.929Z,102225.44
2023-02-02T14:40:29.890Z,102224.56
2023-02-02T14:42:58.956Z,102225.44
2023-02-02T14:45:22.480Z,102237.66
2023-02-02T14:47:48.328Z,102240.28
2023-02-02T14:49:50.410Z,102236.75
2023-02-02T14:51:55.657Z,102245.50
2023-02-02T14:54:01.227Z,102246.38
2023-02-02T14:56:14.443Z,102251.59
2023-02-02T14:58:31.058Z,102250.72
2023-02-02T15:00:35.081Z,102249.78
2023-02-02T15:02:38.121Z,102239.25
2023-02-02T15:04:39.670Z,102241.91
2023-02-02T15:06:43.071Z,102251.50
2023-02-02T15:08:44.833Z,102256.75
2023-02-02T15:10:53.747Z,102257.63
2023-02-02T15:13:10.855Z,102264.63
2023-02-02T15:15:25.586Z,102259.38
2023-02-02T15:17:48.688Z,102259.34
2023-02-02T15:20:05.482Z,102254.94
2023-02-02T15:22:31.443Z,102263.66
2023-02-02T15:24:36.181Z,102264.50
2023-02-02T15:26:42.830Z,102271.50
2023-02-02T15:28:53.146Z,102268.88
2023-02-02T15:31:13.285Z,102272.38
2023-02-02T15:33:30.602Z,102280.22
2023-02-02T15:35:32.783Z,102291.56
2023-02-02T15:37:41.738Z,102294.16
2023-02-02T15:39:48.950Z,102292.41
2023-02-02T15:42:11.790Z,102290.63
2023-02-02T15:44:21.691Z,102305.53
2023-02-02T15:46:32.297Z,102296.75
2023-02-02T15:48:34.788Z,102306.38
2023-02-02T15:50:37.460Z,102296.75
2023-02-02T15:52:47.525Z,102299.34
2023-02-02T15:54:57.545Z,102300.19
2023-02-02T15:57:02.936Z,102300.16
2023-02-02T15:59:19.910Z,102307.16
2023-02-02T16:01:25.969Z,102306.28
2023-02-02T16:03:38.387Z,102309.78
2023-02-02T16:05:55.842Z,102308.91
2023-02-02T16:08:06.057Z,102321.13
2023-02-02T16:10:08.428Z,102323.75
2023-02-02T16:12:22.033Z,102319.34
2023-02-02T16:14:23.868Z,102324.56
2023-02-02T16:16:29.008Z,102336.78
2023-02-02T16:18:30.865Z,102341.16
2023-02-02T16:20:35.142Z,102334.97
2023-02-02T16:22:38.028Z,102332.31
2023-02-02T16:24:44.074Z,102329.66
2023-02-02T16:26:45.881Z,102324.38
2023-02-02T16:28:47.440Z,102327.00
2023-02-02T16:30:51.765Z,102334.84
2023-02-02T16:32:53.658Z,102339.16
2023-02-02T16:34:55.376Z,102337.34
2023-02-02T16:37:22.272Z,102339.91
2023-02-02T16:39:24.172Z,102341.63
2023-02-02T16:41:34.311Z,102350.34
2023-02-02T16:43:38.119Z,102349.41
2023-02-02T16:45:55.358Z,102349.38
2023-02-02T16:48:19.686Z,102346.69
2023-02-02T16:50:29.787Z,102345.78
2023-02-02T16:52:32.279Z,102352.75
2023-02-02T16:54:34.111Z,102344.81
2023-02-02T16:56:39.955Z,102341.28
2023-02-02T16:58:45.536Z,102339.50
2023-02-02T17:01:14.961Z,102337.69
2023-02-02T17:03:18.182Z,102331.50
2023-02-02T17:05:26.114Z,102325.28
2023-02-02T17:07:29.653Z,102334.84
2023-02-02T17:09:37.312Z,102332.13
2023-02-02T17:11:38.810Z,102338.22
2023-02-02T17:13:41.619Z,102337.25
2023-02-02T17:15:43.087Z,102335.47
2023-02-02T17:17:47.754Z,102335.44
2023-02-02T17:19:49.680Z,102337.16
2023-02-02T17:21:51.354Z,102340.59
2023-02-02T17:23:56.295Z,102342.31
2023-02-02T17:25:58.550Z,102344.00
2023-02-02T17:28:00.803Z,102336.09
2023-02-02T17:30:03.703Z,102339.59
2023-02-02T17:32:05.562Z,102347.47
2023-02-02T17:34:16.960Z,102349.22
2023-02-02T17:36:18.431Z,102348.28
2023-02-02T17:38:21.505Z,102350.03
2023-02-02T17:40:24.307Z,102351.66
2023-02-02T17:42:30.582Z,102346.38
2023-02-02T17:44:32.087Z,102363.78
2023-02-02T17:46:35.083Z,102355.00
2023-02-02T17:48:37.187Z,102354.97
2023-02-02T17:50:39.579Z,102347.94
2023-02-02T17:52:41.338Z,102345.31
2023-02-02T17:54:42.786Z,102340.03
2023-02-02T17:56:44.367Z,102335.59
2023-02-02T17:58:45.799Z,102339.88
2023-02-02T18:00:53.792Z,102334.63
2023-02-02T18:03:01.381Z,102332.91
2023-02-02T18:05:04.772Z,102331.97
2023-02-02T18:07:07.563Z,102324.97
2023-02-02T18:09:09.659Z,102333.69
2023-02-02T18:11:13.458Z,102336.38
2023-02-02T18:13:16.806Z,102339.84
2023-02-02T18:15:18.333Z,102343.28
2023-02-02T18:17:21.063Z,102340.63
2023-02-02T18:19:22.565Z,102345.88
2023-02-02T18:21:26.418Z,102338.91
2023-02-02T18:23:28.395Z,102334.56
2023-02-02T18:25:29.878Z,102331.09
2023-02-02T18:27:31.603Z,102330.22
2023-02-02T18:29:33.119Z,102326.66
2023-02-02T18:31:34.631Z,102320.50
2023-02-02T18:33:37.212Z,102314.34
2023-02-02T18:35:42.564Z,102307.28
2023-02-02T18:37:44.028Z,102309.00
2023-02-02T18:39:45.511Z,102321.22
2023-02-02T18:41:46.971Z,102309.88
2023-02-02T18:43:48.516Z,102304.56
2023-02-02T18:46:13.459Z,102298.47
2023-02-02T18:48:16.186Z,102297.56
2023-02-02T18:50:17.708Z,102300.16
2023-02-02T18:52:19.687Z,102295.78
2023-02-02T18:54:22.296Z,102294.91
2023-02-02T18:56:23.765Z,102295.75
2023-02-02T18:58:27.550Z,102292.25
2023-02-02T19:00:29.062Z,102289.66
2023-02-02T19:02:30.596Z,102288.81
2023-02-02T19:04:32.252Z,102291.50
2023-02-02T19:06:52.185Z,102282.81
2023-02-02T19:08:54.771Z,102288.06
2023-02-02T19:11:01.968Z,102275.94
2023-02-02T19:13:19.444Z,102272.50
2023-02-02T19:15:21.158Z,102269.81
2023-02-02T19:17:27.974Z,102263.66
2023-02-02T19:19:33.432Z,102260.94
2023-02-02T19:21:34.904Z,102258.28
2023-02-02T19:23:37.863Z,102260.84
2023-02-02T19:25:46.272Z,102257.34
2023-02-02T19:27:48.068Z,102256.44
2023-02-02T19:29:52.875Z,102248.63
2023-02-02T19:32:04.987Z,102249.47
2023-02-02T19:34:12.369Z,102248.59
2023-02-02T19:36:20.310Z,102238.16
2023-02-02T19:38:22.737Z,102240.81
2023-02-02T19:40:27.826Z,102231.22
2023-02-02T19:42:29.513Z,102234.81
2023-02-02T19:44:34.092Z,102227.84
2023-02-02T19:46:42.326Z,102224.31
2023-02-02T19:48:44.028Z,102226.91
2023-02-02T19:50:46.551Z,102228.59
2023-02-02T19:52:51.856Z,102218.13
2023-02-02T19:54:53.941Z,102226.81
2023-02-02T19:57:01.015Z,102221.56
2023-02-02T19:59:02.683Z,102220.72
2023-02-02T20:01:17.436Z,102221.56
2023-02-02T20:03:20.636Z,102214.56
2023-02-02T20:05:44.883Z,102209.34
2023-02-02T20:07:48.050Z,102205.84
2023-02-02T20:09:50.270Z,102194.53
2023-02-02T20:11:53.167Z,102185.81
2023-02-02T20:13:54.631Z,102193.66
2023-02-02T20:16:03.566Z,102197.19
2023-02-02T20:18:13.840Z,102187.59
2023-02-02T20:20:26.382Z,102184.97
2023-02-02T20:22:29.725Z,102176.25
2023-02-02T20:24:36.879Z,102176.31
2023-02-02T20:26:39.310Z,102175.41
2023-02-02T20:28:45.403Z,102171.09
2023-02-02T20:30:46.971Z,102168.50
2023-02-02T20:32:55.054Z,102161.53
2023-02-02T20:34:59.328Z,102164.19
2023-02-02T20:37:12.750Z,102171.25
2023-02-02T20:39:26.422Z,102159.91
2023-02-02T20:41:27.941Z,102154.66
2023-02-02T20:43:29.393Z,102161.72
2023-02-02T20:45:30.870Z,102156.50
2023-02-02T20:47:32.610Z,102159.16
2023-02-02T20:49:35.146Z,102156.56
2023-02-02T20:51:40.535Z,102151.34
2023-02-02T20:53:42.017Z,102157.50
2023-02-02T20:55:44.874Z,102153.16
2023-02-02T20:57:46.416Z,102152.31
2023-02-02T20:59:48.029Z,102154.13
2023-02-02T21:01:50.513Z,102144.53
2023-02-02T21:03:52.168Z,102151.56
2023-02-02T21:05:53.730Z,102156.00
2023-02-02T21:07:55.440Z,102154.28
2023-02-02T21:09:56.939Z,102153.44
2023-02-02T21:11:58.407Z,102157.00
2023-02-02T21:14:00.019Z,102153.56
2023-02-02T21:16:01.530Z,102157.97
2023-02-02T21:18:03.022Z,102161.50
2023-02-02T21:20:05.084Z,102153.66
2023-02-02T21:22:06.553Z,102158.09
2023-02-02T21:24:08.139Z,102158.16
2023-02-02T21:26:09.623Z,102152.13
2023-02-02T21:28:11.206Z,102149.53
2023-02-02T21:30:14.092Z,102151.31
2023-02-02T21:32:15.695Z,102150.50
2023-02-02T21:34:20.837Z,102150.53
2023-02-02T21:36:45.577Z,102142.78
2023-02-02T21:38:47.135Z,102139.34
2023-02-02T21:40:49.969Z,102130.66
2023-02-02T21:42:51.418Z,102132.47
2023-02-02T21:45:25.308Z,102125.56
2023-02-02T21:47:40.168Z,102123.00
2023-02-02T21:49:41.684Z,102128.34
2023-02-02T21:51:43.256Z,102119.66
2023-02-02T21:53:44.960Z,102111.81
2023-02-02T21:55:59.438Z,102111.88
2023-02-02T21:58:19.006Z,102100.53
2023-02-02T22:00:25.783Z,102100.59
2023-02-02T22:02:38.912Z,102099.75
2023-02-02T22:04:40.448Z,102091.94
2023-02-02T22:06:45.967Z,102086.72
2023-02-02T22:08:48.863Z,102079.72
2023-02-02T22:10:50.403Z,102078.84
2023-02-02T22:12:51.877Z,102074.53
2023-02-02T22:14:59.460Z,102070.16
2023-02-02T22:17:00.961Z,102070.19
2023-02-02T22:19:11.882Z,102071.94
2023-02-02T22:21:16.101Z,102071.97
2023-02-02T22:23:22.214Z,102082.50
2023-02-02T22:25:30.201Z,102072.00
2023-02-02T22:27:55.431Z,102091.28
2023-02-02T22:30:02.399Z,102076.44
2023-02-02T22:32:03.905Z,102080.84
2023-02-02T22:34:05.906Z,102083.47
2023-02-02T22:36:07.765Z,102090.47
2023-02-02T22:38:10.213Z,102083.47
2023-02-02T22:40:12.416Z,102077.34
2023-02-02T22:42:13.894Z,102070.38
2023-02-02T22:44:15.369Z,102080.88
2023-02-02T22:46:16.913Z,102066.88
2023-02-02T22:48:18.856Z,102058.13
2023-02-02T22:50:31.224Z,102057.25
2023-02-02T22:52:32.680Z,102057.25
2023-02-02T22:54:34.201Z,102031.84
2023-02-02T22:56:35.640Z,102029.22
2023-02-02T22:58:37.152Z,102029.22
2023-02-02T23:00:38.678Z,102024.84
2023-02-02T23:02:41.316Z,102030.09
2023-02-02T23:04:42.787Z,102004.69
2023-02-02T23:06:44.234Z,102015.22
2023-02-02T23:08:46.064Z,102007.34
2023-02-02T23:10:47.610Z,102027.47
2023-02-02T23:12:49.995Z,102011.72
2023-02-02T23:14:51.456Z,102023.13
2023-02-02T23:16:52.920Z,102016.97
2023-02-02T23:18:54.402Z,102005.59
2023-02-02T23:20:55.834Z,102018.75
2023-02-02T23:22:57.381Z,102017.00
2023-02-02T23:24:59.096Z,102012.63
2023-02-02T23:27:00.668Z,102002.97
2023-02-02T23:29:02.214Z,102011.75
2023-02-02T23:31:03.862Z,102004.72
2023-02-02T23:33:05.371Z,102004.72
2023-02-02T23:35:10.341Z,102007.34
2023-02-02T23:37:12.276Z,102015.28
2023-02-02T23:39:13.803Z,102017.03
2023-02-02T23:41:15.253Z,102015.25
2023-02-02T23:43:16.749Z,102003.84
2023-02-02T23:45:18.283Z,102010.88
2023-02-02T23:47:19.828Z,102007.38
2023-02-02T23:49:21.580Z,102015.28
2023-02-02T23:51:23.306Z,102012.66
2023-02-02T23:53:24.977Z,102016.16
2023-02-02T23:55:26.749Z,102015.28
2023-02-02T23:57:28.445Z,102007.41
2023-02-02T23:59:30.214Z,102015.28
